createdAt,value
2022-12-15T11:05:25.314Z,30.80
2022-12-15T11:08:13.437Z,27.27
2022-12-15T11:11:13.083Z,25.40
2022-12-15T11:13:41.184Z,26.83
2022-12-15T11:16:19.335Z,24.93
2022-12-15T11:19:09.737Z,26.40
2022-12-15T11:21:42.042Z,27.20
2022-12-15T11:24:27.476Z,25.00
2022-12-15T11:27:13.285Z,25.83
2022-12-15T11:29:50.109Z,27.00
2022-12-15T11:32:22.827Z,26.77
2022-12-15T11:34:49.964Z,26.63
2022-12-15T11:37:36.857Z,25.90
2022-12-15T11:40:24.231Z,26.00
2022-12-15T11:43:19.346Z,26.10
2022-12-15T11:46:07.029Z,24.47
2022-12-15T11:48:49.319Z,25.77
2022-12-15T11:51:46.393Z,25.90
2022-12-15T11:54:37.530Z,26.33
2022-12-15T11:57:27.452Z,24.57
2022-12-15T12:00:09.854Z,25.67
2022-12-15T12:03:03.422Z,26.63
2022-12-15T12:05:47.985Z,25.00
2022-12-15T12:08:57.801Z,25.47
2022-12-15T12:11:34.847Z,25.00
2022-12-15T12:14:19.765Z,25.23
2022-12-15T12:16:54.369Z,25.63
2022-12-15T12:19:33.809Z,25.70
2022-12-15T12:22:09.568Z,25.20
2022-12-15T12:24:45.261Z,24.47
2022-12-15T12:27:28.906Z,23.77
2022-12-15T12:30:13.336Z,23.37
2022-12-15T12:32:44.205Z,25.13
2022-12-15T12:35:31.404Z,24.77
2022-12-15T12:38:04.803Z,25.77
2022-12-15T12:40:41.366Z,29.05
2022-12-15T12:43:22.168Z,26.47
2022-12-15T12:46:12.152Z,28.17
2022-12-15T12:48:56.291Z,24.43
2022-12-15T12:51:26.220Z,24.73
2022-12-15T12:53:53.856Z,23.23
2022-12-15T12:56:35.753Z,24.23
2022-12-15T12:59:09.350Z,22.40
2022-12-15T13:01:38.426Z,24.23
2022-12-15T13:04:09.793Z,24.47
2022-12-15T13:06:36.580Z,24.13
2022-12-15T13:09:19.580Z,23.67
2022-12-15T13:11:49.412Z,24.13
2022-12-15T13:14:26.042Z,24.27
2022-12-15T13:17:26.340Z,23.13
2022-12-15T13:19:56.980Z,25.97
2022-12-15T13:22:31.611Z,24.03
2022-12-15T13:24:58.656Z,24.00
2022-12-15T13:27:35.873Z,24.40
2022-12-15T13:30:15.553Z,24.37
2022-12-15T13:32:45.931Z,23.90
2022-12-15T13:35:12.694Z,24.90
2022-12-15T13:37:56.049Z,23.33
2022-12-15T13:40:35.549Z,23.00
2022-12-15T13:43:05.334Z,24.47
2022-12-15T13:45:37.800Z,23.97
2022-12-15T13:48:20.444Z,24.03
2022-12-15T13:50:55.672Z,23.30
2022-12-15T13:53:25.665Z,22.60
2022-12-15T13:56:13.420Z,23.87
2022-12-15T13:58:47.919Z,24.50
2022-12-15T14:01:33.182Z,24.07
2022-12-15T14:04:16.817Z,22.80
2022-12-15T14:06:56.588Z,23.87
2022-12-15T14:09:33.411Z,22.67
2022-12-15T14:12:02.798Z,23.83
2022-12-15T14:14:33.812Z,24.60
2022-12-15T14:17:12.337Z,24.63
2022-12-15T14:19:44.860Z,24.37
2022-12-15T14:22:42.843Z,23.03
2022-12-15T14:25:18.867Z,23.57
2022-12-15T14:27:45.852Z,24.50
2022-12-15T14:30:35.661Z,25.40
2022-12-15T14:33:13.775Z,24.07
2022-12-15T14:35:49.465Z,25.70
2022-12-15T14:38:22.430Z,27.27
2022-12-15T14:40:52.171Z,29.10
2022-12-15T14:43:26.974Z,29.20
2022-12-15T14:46:06.184Z,30.07
2022-12-15T14:48:42.022Z,28.23
2022-12-15T14:51:12.921Z,25.23
2022-12-15T14:53:41.892Z,27.00
2022-12-15T14:56:14.878Z,28.73
2022-12-15T14:58:42.399Z,30.17
2022-12-15T15:01:28.142Z,33.30
2022-12-15T15:04:03.449Z,32.53
2022-12-15T15:06:37.661Z,35.50
2022-12-15T15:09:18.921Z,32.70
2022-12-15T15:11:48.263Z,31.87
2022-12-15T15:14:19.909Z,33.70
2022-12-15T15:17:02.162Z,33.20
2022-12-15T15:34:46.942Z,36.87
2022-12-15T15:37:19.261Z,36.10
2022-12-15T15:39:49.215Z,37.87
2022-12-15T15:42:16.332Z,37.07
2022-12-15T15:44:43.493Z,38.53
2022-12-15T15:47:26.464Z,36.60
2022-12-15T15:49:55.087Z,37.90
2022-12-15T15:52:22.417Z,37.93
2022-12-15T15:54:50.172Z,39.77
2022-12-15T15:57:18.142Z,39.47
2022-12-15T15:59:46.697Z,38.40
2022-12-15T16:02:14.663Z,39.23
2022-12-15T16:04:42.759Z,46.60
2022-12-15T16:07:25.664Z,47.37
2022-12-15T16:09:53.576Z,53.53
2022-12-15T16:12:27.543Z,56.80
2022-12-15T16:14:55.346Z,56.27
2022-12-15T16:17:23.244Z,47.83
2022-12-15T16:19:50.301Z,46.50
2022-12-15T16:22:22.232Z,42.73
2022-12-15T16:24:49.131Z,44.73
2022-12-15T16:27:16.525Z,44.37
2022-12-15T16:29:43.622Z,48.33
2022-12-15T16:32:14.051Z,49.53
2022-12-15T16:34:42.050Z,46.83
2022-12-15T16:37:26.603Z,46.33
2022-12-15T16:39:53.818Z,46.37
2022-12-15T16:42:20.686Z,46.23
2022-12-15T16:44:47.538Z,47.57
2022-12-15T16:47:14.449Z,47.53
2022-12-15T16:49:41.686Z,50.17
2022-12-15T16:52:20.000Z,48.40
2022-12-15T16:54:49.111Z,47.13
2022-12-15T16:57:16.156Z,45.67
2022-12-15T16:59:43.140Z,46.87
2022-12-15T17:02:28.853Z,49.33
2022-12-15T17:04:56.358Z,54.50
2022-12-15T17:07:26.513Z,56.77
2022-12-15T17:09:53.539Z,52.43
2022-12-15T17:12:20.529Z,53.43
2022-12-15T17:14:47.454Z,48.10
2022-12-15T17:17:18.685Z,49.53
2022-12-15T17:20:11.789Z,48.37
2022-12-15T17:22:33.589Z,48.33
2022-12-15T17:25:00.613Z,47.50
2022-12-15T17:27:28.666Z,48.33
2022-12-15T17:29:58.099Z,45.90
2022-12-15T17:32:25.049Z,43.37
2022-12-15T17:34:52.096Z,45.77
2022-12-15T17:37:19.058Z,47.50
2022-12-15T17:39:51.553Z,52.23
2022-12-15T17:42:20.569Z,50.70
2022-12-15T17:44:48.430Z,47.57
2022-12-15T17:47:16.663Z,51.63
2022-12-15T17:49:44.335Z,61.20
2022-12-15T17:52:20.354Z,54.43
2022-12-15T17:54:47.352Z,55.83
2022-12-15T17:57:14.215Z,52.77
2022-12-15T17:59:41.298Z,58.67
2022-12-15T18:02:15.080Z,52.83
2022-12-15T18:04:42.997Z,49.57
2022-12-15T18:07:18.811Z,50.67
2022-12-15T18:09:46.074Z,49.83
2022-12-15T18:12:22.932Z,48.70
2022-12-15T18:14:50.228Z,50.13
2022-12-15T18:17:17.122Z,50.13
2022-12-15T18:19:44.011Z,48.30
2022-12-15T18:22:28.785Z,48.97
2022-12-15T18:24:55.694Z,49.60
2022-12-15T18:27:24.986Z,49.20
2022-12-15T18:29:52.071Z,49.97
2022-12-15T18:32:22.733Z,49.00
2022-12-15T18:34:49.652Z,47.20
2022-12-15T18:37:18.646Z,48.73
2022-12-15T18:39:45.903Z,48.27
2022-12-15T18:42:18.337Z,48.40
2022-12-15T18:44:50.393Z,48.73
2022-12-15T18:47:19.621Z,48.07
2022-12-15T18:49:46.722Z,47.53
2022-12-15T18:52:27.680Z,47.43
2022-12-15T18:54:57.008Z,47.47
2022-12-15T18:57:32.112Z,48.10
2022-12-15T19:00:28.843Z,48.30
2022-12-15T19:05:32.726Z,47.87
2022-12-15T19:08:10.097Z,48.40
2022-12-15T19:10:48.580Z,47.93
2022-12-15T19:13:18.156Z,49.10
2022-12-15T19:15:45.628Z,50.63
2022-12-15T19:18:35.960Z,47.30
2022-12-15T19:21:42.844Z,48.17
2022-12-15T19:24:16.775Z,45.60
2022-12-15T19:26:44.072Z,48.77
2022-12-15T19:29:17.752Z,48.33
2022-12-15T19:31:45.318Z,48.43
2022-12-15T19:34:12.644Z,49.00
2022-12-15T19:36:39.715Z,50.33
2022-12-15T19:39:08.531Z,48.57
2022-12-15T19:41:38.212Z,48.03
2022-12-15T19:44:15.185Z,50.13
2022-12-15T19:46:43.054Z,50.17
2022-12-15T19:49:10.671Z,51.20
2022-12-15T19:51:40.039Z,50.57
2022-12-15T19:54:06.980Z,51.33
2022-12-15T19:56:33.921Z,48.70
2022-12-15T19:59:00.772Z,47.23
2022-12-15T20:01:28.021Z,48.33
2022-12-15T20:03:54.944Z,49.60
2022-12-15T20:06:27.220Z,47.17
2022-12-15T20:08:56.266Z,47.10
2022-12-15T20:11:27.279Z,51.57
2022-12-15T20:18:51.318Z,50.57
2022-12-15T20:21:22.633Z,50.77
2022-12-15T20:23:52.185Z,48.77
2022-12-15T20:26:19.815Z,52.20
2022-12-15T20:28:47.001Z,51.67
2022-12-15T20:31:22.748Z,51.07
2022-12-15T20:33:50.406Z,53.67
2022-12-15T20:36:24.599Z,50.47
2022-12-15T20:38:53.938Z,51.47
2022-12-15T20:41:26.985Z,48.80
2022-12-15T20:43:55.713Z,49.70
2022-12-15T23:38:22.217Z,35.17
2022-12-15T23:40:52.932Z,34.97
2022-12-15T23:43:20.969Z,36.27
2022-12-15T23:45:58.490Z,36.90
2022-12-15T23:48:28.782Z,36.47
2022-12-15T23:50:55.620Z,34.90
2022-12-15T23:53:22.933Z,33.47
2022-12-15T23:55:49.752Z,34.20
2022-12-15T23:58:18.697Z,33.83
